sensor_id;sensor_type;location;lat;lon;timestamp;temperature;humidity
59771;DHT22;45649;53.014;6.600;2023-03-01T00:01:29;2.10;99.90
59771;DHT22;45649;53.014;6.600;2023-03-01T00:03:56;2.10;99.90
59771;DHT22;45649;53.014;6.600;2023-03-01T00:06:25;2.10;99.90
59771;DHT22;45649;53.014;6.600;2023-03-01T00:08:51;2.10;99.90
59771;DHT22;45649;53.014;6.600;2023-03-01T00:11:25;2.00;99.90
59771;DHT22;45649;53.014;6.600;2023-03-01T00:13:53;2.00;99.90
59771;DHT22;45649;53.014;6.600;2023-03-01T00:16:23;2.00;99.90
59771;DHT22;45649;53.014;6.600;2023-03-01T00:18:49;2.00;99.90
59771;DHT22;45649;53.014;6.600;2023-03-01T00:21:16;2.00;99.90
59771;DHT22;45649;53.014;6.600;2023-03-01T00:23:42;1.90;99.90
59771;DHT22;45649;53.014;6.600;2023-03-01T00:26:12;1.80;99.90
59771;DHT22;45649;53.014;6.600;2023-03-01T00:28:39;1.70;99.90
59771;DHT22;45649;53.014;6.600;2023-03-01T00:31:06;1.70;99.90
59771;DHT22;45649;53.014;6.600;2023-03-01T00:33:32;1.70;99.90
59771;DHT22;45649;53.014;6.600;2023-03-01T00:35:58;1.70;99.90
59771;DHT22;45649;53.014;6.600;2023-03-01T00:38:25;1.60;99.90
59771;DHT22;45649;53.014;6.600;2023-03-01T00:40:51;1.60;99.90
59771;DHT22;45649;53.014;6.600;2023-03-01T00:43:18;1.60;99.90
59771;DHT22;45649;53.014;6.600;2023-03-01T00:45:44;1.60;99.90
59771;DHT22;45649;53.014;6.600;2023-03-01T00:48:10;1.60;99.90
59771;DHT22;45649;53.014;6.600;2023-03-01T00:50:40;1.60;99.90
59771;DHT22;45649;53.014;6.600;2023-03-01T00:53:06;1.50;99.90
59771;DHT22;45649;53.014;6.600;2023-03-01T00:55:31;1.40;99.90
59771;DHT22;45649;53.014;6.600;2023-03-01T00:57:57;1.40;99.90
59771;DHT22;45649;53.014;6.600;2023-03-01T01:00:23;1.40;99.90
59771;DHT22;45649;53.014;6.600;2023-03-01T01:02:49;1.40;99.90
59771;DHT22;45649;53.014;6.600;2023-03-01T01:05:15;1.40;99.90
59771;DHT22;45649;53.014;6.600;2023-03-01T01:07:47;1.40;99.90
59771;DHT22;45649;53.014;6.600;2023-03-01T01:10:13;1.30;99.90
59771;DHT22;45649;53.014;6.600;2023-03-01T01:12:43;1.30;99.90
59771;DHT22;45649;53.014;6.600;2023-03-01T01:15:09;1.30;99.90
59771;DHT22;45649;53.014;6.600;2023-03-01T01:17:38;1.30;99.90
59771;DHT22;45649;53.014;6.600;2023-03-01T01:20:04;1.30;99.90
59771;DHT22;45649;53.014;6.600;2023-03-01T01:22:30;1.30;99.90
59771;DHT22;45649;53.014;6.600;2023-03-01T01:24:55;1.30;99.90
59771;DHT22;45649;53.014;6.600;2023-03-01T01:27:21;1.30;99.90
59771;DHT22;45649;53.014;6.600;2023-03-01T01:29:47;1.20;99.90
59771;DHT22;45649;53.014;6.600;2023-03-01T01:32:13;1.20;99.90
59771;DHT22;45649;53.014;6.600;2023-03-01T01:34:38;1.20;99.90
59771;DHT22;45649;53.014;6.600;2023-03-01T01:37:04;1.20;99.90
59771;DHT22;45649;53.014;6.600;2023-03-01T01:39:34;1.20;99.90
59771;DHT22;45649;53.014;6.600;2023-03-01T01:42:01;1.20;99.90
59771;DHT22;45649;53.014;6.600;2023-03-01T01:44:28;1.20;99.90
59771;DHT22;45649;53.014;6.600;2023-03-01T01:49:30;1.20;99.90
59771;DHT22;45649;53.014;6.600;2023-03-01T01:52:14;1.20;99.90
59771;DHT22;45649;53.014;6.600;2023-03-01T01:57:19;1.20;99.90
59771;DHT22;45649;53.014;6.600;2023-03-01T01:59:49;1.20;99.90
59771;DHT22;45649;53.014;6.600;2023-03-01T02:02:15;1.10;99.90
59771;DHT22;45649;53.014;6.600;2023-03-01T02:04:42;1.00;99.90
59771;DHT22;45649;53.014;6.600;2023-03-01T02:07:16;0.80;99.90
59771;DHT22;45649;53.014;6.600;2023-03-01T02:09:46;0.80;99.90
59771;DHT22;45649;53.014;6.600;2023-03-01T02:12:16;0.80;99.90
59771;DHT22;45649;53.014;6.600;2023-03-01T02:14:43;0.80;99.90
59771;DHT22;45649;53.014;6.600;2023-03-01T02:17:09;0.80;99.90
59771;DHT22;45649;53.014;6.600;2023-03-01T02:25:06;0.80;99.90
59771;DHT22;45649;53.014;6.600;2023-03-01T02:27:59;0.70;99.90
59771;DHT22;45649;53.014;6.600;2023-03-01T02:30:27;0.70;99.90
59771;DHT22;45649;53.014;6.600;2023-03-01T02:32:56;0.70;99.90
59771;DHT22;45649;53.014;6.600;2023-03-01T02:35:37;0.60;99.90
59771;DHT22;45649;53.014;6.600;2023-03-01T02:38:06;0.60;99.90
59771;DHT22;45649;53.014;6.600;2023-03-01T02:40:34;0.60;99.90
59771;DHT22;45649;53.014;6.600;2023-03-01T02:43:01;0.50;99.90
59771;DHT22;45649;53.014;6.600;2023-03-01T02:45:29;0.40;99.90
59771;DHT22;45649;53.014;6.600;2023-03-01T02:47:56;0.30;99.90
59771;DHT22;45649;53.014;6.600;2023-03-01T02:55:53;0.40;99.90
59771;DHT22;45649;53.014;6.600;2023-03-01T02:58:19;0.30;99.90
59771;DHT22;45649;53.014;6.600;2023-03-01T03:00:45;0.30;99.90
59771;DHT22;45649;53.014;6.600;2023-03-01T03:03:17;0.30;99.90
59771;DHT22;45649;53.014;6.600;2023-03-01T03:05:44;0.30;99.90
59771;DHT22;45649;53.014;6.600;2023-03-01T03:08:10;0.30;99.90
59771;DHT22;45649;53.014;6.600;2023-03-01T03:10:39;0.20;99.90
59771;DHT22;45649;53.014;6.600;2023-03-01T03:13:15;0.30;99.90
59771;DHT22;45649;53.014;6.600;2023-03-01T03:15:41;0.30;99.90
59771;DHT22;45649;53.014;6.600;2023-03-01T03:18:10;0.30;99.90
59771;DHT22;45649;53.014;6.600;2023-03-01T03:20:37;0.30;99.90
59771;DHT22;45649;53.014;6.600;2023-03-01T03:23:03;0.10;99.90
59771;DHT22;45649;53.014;6.600;2023-03-01T03:25:29;0.10;99.90
59771;DHT22;45649;53.014;6.600;2023-03-01T03:27:56;0.10;99.90
59771;DHT22;45649;53.014;6.600;2023-03-01T03:30:24;0.10;99.90
59771;DHT22;45649;53.014;6.600;2023-03-01T03:32:50;0.00;99.90
59771;DHT22;45649;53.014;6.600;2023-03-01T03:35:30;-0.10;99.90
59771;DHT22;45649;53.014;6.600;2023-03-01T03:38:01;-0.10;99.90
59771;DHT22;45649;53.014;6.600;2023-03-01T03:40:37;-0.10;99.90
59771;DHT22;45649;53.014;6.600;2023-03-01T03:43:15;-0.10;99.90
59771;DHT22;45649;53.014;6.600;2023-03-01T03:45:43;-0.10;99.90
59771;DHT22;45649;53.014;6.600;2023-03-01T03:48:09;-0.10;99.90
59771;DHT22;45649;53.014;6.600;2023-03-01T03:50:35;-0.20;99.90
59771;DHT22;45649;53.014;6.600;2023-03-01T03:53:04;-0.20;99.90
59771;DHT22;45649;53.014;6.600;2023-03-01T03:55:30;-0.20;99.90
59771;DHT22;45649;53.014;6.600;2023-03-01T03:57:58;-0.20;99.90
59771;DHT22;45649;53.014;6.600;2023-03-01T04:00:28;-0.10;99.90
59771;DHT22;45649;53.014;6.600;2023-03-01T04:02:54;-0.30;99.90
59771;DHT22;45649;53.014;6.600;2023-03-01T04:05:22;-0.40;99.90
59771;DHT22;45649;53.014;6.600;2023-03-01T04:07:48;-0.40;99.90
59771;DHT22;45649;53.014;6.600;2023-03-01T04:10:17;-0.30;99.90
59771;DHT22;45649;53.014;6.600;2023-03-01T04:12:43;-0.30;99.90
59771;DHT22;45649;53.014;6.600;2023-03-01T04:15:10;-0.40;99.90
59771;DHT22;45649;53.014;6.600;2023-03-01T04:17:44;-0.40;99.90
59771;DHT22;45649;53.014;6.600;2023-03-01T04:20:18;-0.50;99.90
59771;DHT22;45649;53.014;6.600;2023-03-01T04:23:01;-0.50;99.90
59771;DHT22;45649;53.014;6.600;2023-03-01T04:25:40;-0.40;99.90
59771;DHT22;45649;53.014;6.600;2023-03-01T04:28:06;-0.40;99.90
59771;DHT22;45649;53.014;6.600;2023-03-01T04:30:32;-0.40;99.90
59771;DHT22;45649;53.014;6.600;2023-03-01T04:33:05;-0.40;99.90
59771;DHT22;45649;53.014;6.600;2023-03-01T04:35:32;-0.40;99.90
59771;DHT22;45649;53.014;6.600;2023-03-01T04:37:58;-0.50;99.90
59771;DHT22;45649;53.014;6.600;2023-03-01T04:40:24;-0.50;99.90
59771;DHT22;45649;53.014;6.600;2023-03-01T04:42:50;-0.50;99.90
59771;DHT22;45649;53.014;6.600;2023-03-01T04:45:15;-0.60;99.90
59771;DHT22;45649;53.014;6.600;2023-03-01T04:47:43;-0.50;99.90
59771;DHT22;45649;53.014;6.600;2023-03-01T04:50:11;-0.60;99.90
59771;DHT22;45649;53.014;6.600;2023-03-01T04:52:37;-0.80;99.90
59771;DHT22;45649;53.014;6.600;2023-03-01T04:55:04;-0.80;99.90
59771;DHT22;45649;53.014;6.600;2023-03-01T04:57:31;-0.80;99.90
59771;DHT22;45649;53.014;6.600;2023-03-01T04:59:56;-0.70;99.90
59771;DHT22;45649;53.014;6.600;2023-03-01T05:02:22;-0.60;99.90
59771;DHT22;45649;53.014;6.600;2023-03-01T05:04:49;-0.60;99.90
59771;DHT22;45649;53.014;6.600;2023-03-01T05:07:14;-0.50;99.90
59771;DHT22;45649;53.014;6.600;2023-03-01T05:09:48;-0.60;99.90
59771;DHT22;45649;53.014;6.600;2023-03-01T05:12:14;-0.50;99.90
59771;DHT22;45649;53.014;6.600;2023-03-01T05:14:41;-0.50;99.90
59771;DHT22;45649;53.014;6.600;2023-03-01T05:17:07;-0.40;99.90
59771;DHT22;45649;53.014;6.600;2023-03-01T05:19:33;-0.40;99.90
59771;DHT22;45649;53.014;6.600;2023-03-01T05:21:59;-0.40;99.90
59771;DHT22;45649;53.014;6.600;2023-03-01T05:24:33;-0.30;99.90
59771;DHT22;45649;53.014;6.600;2023-03-01T05:26:59;-0.30;99.90
59771;DHT22;45649;53.014;6.600;2023-03-01T05:29:27;-0.30;99.90
59771;DHT22;45649;53.014;6.600;2023-03-01T05:31:55;-0.30;99.90
59771;DHT22;45649;53.014;6.600;2023-03-01T05:34:25;-0.30;99.90
59771;DHT22;45649;53.014;6.600;2023-03-01T05:36:52;-0.30;99.90
59771;DHT22;45649;53.014;6.600;2023-03-01T05:39:23;-0.30;99.90
59771;DHT22;45649;53.014;6.600;2023-03-01T05:41:53;-0.30;99.90
59771;DHT22;45649;53.014;6.600;2023-03-01T05:44:19;-0.30;99.90
59771;DHT22;45649;53.014;6.600;2023-03-01T05:46:45;-0.40;99.90
59771;DHT22;45649;53.014;6.600;2023-03-01T05:49:12;-0.40;99.90
59771;DHT22;45649;53.014;6.600;2023-03-01T05:51:42;-0.40;99.90
59771;DHT22;45649;53.014;6.600;2023-03-01T05:54:11;-0.50;99.90
59771;DHT22;45649;53.014;6.600;2023-03-01T05:56:37;-0.50;99.90
59771;DHT22;45649;53.014;6.600;2023-03-01T05:59:04;-0.50;99.90
59771;DHT22;45649;53.014;6.600;2023-03-01T06:01:31;-0.60;99.90
59771;DHT22;45649;53.014;6.600;2023-03-01T06:03:57;-0.60;99.90
59771;DHT22;45649;53.014;6.600;2023-03-01T06:06:23;-0.60;99.90
59771;DHT22;45649;53.014;6.600;2023-03-01T06:08:50;-0.60;99.90
59771;DHT22;45649;53.014;6.600;2023-03-01T06:11:15;-0.60;99.90
59771;DHT22;45649;53.014;6.600;2023-03-01T06:13:45;-0.60;99.90
59771;DHT22;45649;53.014;6.600;2023-03-01T06:16:11;-0.60;99.90
59771;DHT22;45649;53.014;6.600;2023-03-01T06:18:38;-0.60;99.90
59771;DHT22;45649;53.014;6.600;2023-03-01T06:21:05;-0.60;99.90
59771;DHT22;45649;53.014;6.600;2023-03-01T06:23:31;-0.60;99.90
59771;DHT22;45649;53.014;6.600;2023-03-01T06:25:57;-0.70;99.90
59771;DHT22;45649;53.014;6.600;2023-03-01T06:28:22;-0.80;99.90
59771;DHT22;45649;53.014;6.600;2023-03-01T06:30:49;-0.80;99.90
59771;DHT22;45649;53.014;6.600;2023-03-01T06:33:15;-0.80;99.90
59771;DHT22;45649;53.014;6.600;2023-03-01T06:35:41;-0.80;99.90
59771;DHT22;45649;53.014;6.600;2023-03-01T06:38:07;-0.90;99.90
59771;DHT22;45649;53.014;6.600;2023-03-01T06:40:33;-1.00;99.90
59771;DHT22;45649;53.014;6.600;2023-03-01T06:43:01;-0.90;99.90
59771;DHT22;45649;53.014;6.600;2023-03-01T06:45:26;-1.00;99.90
59771;DHT22;45649;53.014;6.600;2023-03-01T06:47:52;-0.90;99.90
59771;DHT22;45649;53.014;6.600;2023-03-01T06:50:18;-0.90;99.90
59771;DHT22;45649;53.014;6.600;2023-03-01T06:52:44;-0.90;99.90
59771;DHT22;45649;53.014;6.600;2023-03-01T06:55:11;-0.90;99.90
59771;DHT22;45649;53.014;6.600;2023-03-01T06:57:37;-0.90;99.90
59771;DHT22;45649;53.014;6.600;2023-03-01T07:00:04;-0.90;99.90
59771;DHT22;45649;53.014;6.600;2023-03-01T07:02:30;-0.80;99.90
59771;DHT22;45649;53.014;6.600;2023-03-01T07:04:55;-0.90;99.90
59771;DHT22;45649;53.014;6.600;2023-03-01T07:07:21;-0.90;99.90
59771;DHT22;45649;53.014;6.600;2023-03-01T07:09:49;-0.90;99.90
59771;DHT22;45649;53.014;6.600;2023-03-01T07:12:14;-0.80;99.90
59771;DHT22;45649;53.014;6.600;2023-03-01T07:14:40;-0.70;99.90
59771;DHT22;45649;53.014;6.600;2023-03-01T07:17:06;-0.70;99.90
59771;DHT22;45649;53.014;6.600;2023-03-01T07:19:32;-0.60;99.90
59771;DHT22;45649;53.014;6.600;2023-03-01T07:21:58;-0.60;99.90
59771;DHT22;45649;53.014;6.600;2023-03-01T07:24:24;-0.50;99.90
59771;DHT22;45649;53.014;6.600;2023-03-01T07:26:50;-0.40;99.90
59771;DHT22;45649;53.014;6.600;2023-03-01T07:29:17;-0.30;99.90
59771;DHT22;45649;53.014;6.600;2023-03-01T07:31:43;-0.30;99.90
59771;DHT22;45649;53.014;6.600;2023-03-01T07:34:09;-0.20;99.90
59771;DHT22;45649;53.014;6.600;2023-03-01T07:36:36;-0.20;99.90
59771;DHT22;45649;53.014;6.600;2023-03-01T07:39:02;-0.20;99.90
59771;DHT22;45649;53.014;6.600;2023-03-01T07:41:29;-0.10;99.90
59771;DHT22;45649;53.014;6.600;2023-03-01T07:43:55;-0.10;99.90
59771;DHT22;45649;53.014;6.600;2023-03-01T07:46:21;0.00;99.90
59771;DHT22;45649;53.014;6.600;2023-03-01T07:48:47;0.00;99.90
59771;DHT22;45649;53.014;6.600;2023-03-01T07:51:13;0.10;99.90
59771;DHT22;45649;53.014;6.600;2023-03-01T07:53:39;0.10;99.90
59771;DHT22;45649;53.014;6.600;2023-03-01T07:56:08;0.10;99.90
59771;DHT22;45649;53.014;6.600;2023-03-01T07:58:35;0.10;99.90
59771;DHT22;45649;53.014;6.600;2023-03-01T08:01:05;0.20;99.90
59771;DHT22;45649;53.014;6.600;2023-03-01T08:03:34;0.20;99.90
59771;DHT22;45649;53.014;6.600;2023-03-01T08:06:01;0.70;99.90
59771;DHT22;45649;53.014;6.600;2023-03-01T08:08:28;0.70;99.90
59771;DHT22;45649;53.014;6.600;2023-03-01T08:10:56;0.70;99.90
59771;DHT22;45649;53.014;6.600;2023-03-01T08:13:22;0.70;99.90
59771;DHT22;45649;53.014;6.600;2023-03-01T08:15:49;0.70;99.90
59771;DHT22;45649;53.014;6.600;2023-03-01T08:18:18;0.70;99.90
59771;DHT22;45649;53.014;6.600;2023-03-01T08:20:44;0.70;99.90
59771;DHT22;45649;53.014;6.600;2023-03-01T08:23:11;0.90;99.90
59771;DHT22;45649;53.014;6.600;2023-03-01T08:25:37;0.90;99.90
59771;DHT22;45649;53.014;6.600;2023-03-01T08:28:03;1.00;99.90
59771;DHT22;45649;53.014;6.600;2023-03-01T08:30:29;1.00;99.90
59771;DHT22;45649;53.014;6.600;2023-03-01T08:32:55;1.00;99.90
59771;DHT22;45649;53.014;6.600;2023-03-01T08:35:21;1.00;99.90
59771;DHT22;45649;53.014;6.600;2023-03-01T08:37:47;1.00;99.90
59771;DHT22;45649;53.014;6.600;2023-03-01T08:40:13;1.10;99.90
59771;DHT22;45649;53.014;6.600;2023-03-01T08:42:42;1.20;99.90
59771;DHT22;45649;53.014;6.600;2023-03-01T08:45:09;1.20;99.90
59771;DHT22;45649;53.014;6.600;2023-03-01T08:47:35;1.30;99.90
59771;DHT22;45649;53.014;6.600;2023-03-01T08:50:01;1.40;99.90
59771;DHT22;45649;53.014;6.600;2023-03-01T08:52:28;1.40;99.90
59771;DHT22;45649;53.014;6.600;2023-03-01T08:54:55;1.40;99.90
59771;DHT22;45649;53.014;6.600;2023-03-01T08:57:22;1.50;99.90
59771;DHT22;45649;53.014;6.600;2023-03-01T08:59:47;1.60;99.90
59771;DHT22;45649;53.014;6.600;2023-03-01T09:02:16;1.60;99.90
59771;DHT22;45649;53.014;6.600;2023-03-01T09:04:42;1.70;99.90
59771;DHT22;45649;53.014;6.600;2023-03-01T09:07:08;1.80;99.90
59771;DHT22;45649;53.014;6.600;2023-03-01T09:09:34;1.80;99.90
59771;DHT22;45649;53.014;6.600;2023-03-01T09:12:00;1.90;99.90
59771;DHT22;45649;53.014;6.600;2023-03-01T09:14:26;1.90;99.90
59771;DHT22;45649;53.014;6.600;2023-03-01T09:16:52;2.00;99.90
59771;DHT22;45649;53.014;6.600;2023-03-01T09:19:18;2.10;99.90
59771;DHT22;45649;53.014;6.600;2023-03-01T09:21:44;2.10;99.90
59771;DHT22;45649;53.014;6.600;2023-03-01T09:24:19;2.20;99.90
59771;DHT22;45649;53.014;6.600;2023-03-01T09:26:45;2.30;99.90
59771;DHT22;45649;53.014;6.600;2023-03-01T09:29:12;2.40;99.90
59771;DHT22;45649;53.014;6.600;2023-03-01T09:31:37;2.40;99.90
59771;DHT22;45649;53.014;6.600;2023-03-01T09:34:03;2.50;99.90
59771;DHT22;45649;53.014;6.600;2023-03-01T09:36:29;2.60;99.90
59771;DHT22;45649;53.014;6.600;2023-03-01T09:38:55;2.60;99.90
59771;DHT22;45649;53.014;6.600;2023-03-01T09:47:24;2.90;99.90
59771;DHT22;45649;53.014;6.600;2023-03-01T09:56:04;3.20;99.90
59771;DHT22;45649;53.014;6.600;2023-03-01T09:59:00;3.30;99.90
59771;DHT22;45649;53.014;6.600;2023-03-01T10:09:34;3.60;99.90
59771;DHT22;45649;53.014;6.600;2023-03-01T10:12:02;3.80;99.90
59771;DHT22;45649;53.014;6.600;2023-03-01T10:14:43;3.80;99.90
59771;DHT22;45649;53.014;6.600;2023-03-01T10:19:51;4.10;99.90
59771;DHT22;45649;53.014;6.600;2023-03-01T10:22:28;4.10;99.90
59771;DHT22;45649;53.014;6.600;2023-03-01T10:24:58;4.20;99.90
59771;DHT22;45649;53.014;6.600;2023-03-01T10:27:39;4.30;99.90
59771;DHT22;45649;53.014;6.600;2023-03-01T10:30:35;4.40;99.90
59771;DHT22;45649;53.014;6.600;2023-03-01T10:33:13;4.40;99.90
59771;DHT22;45649;53.014;6.600;2023-03-01T10:35:42;4.50;99.90
59771;DHT22;45649;53.014;6.600;2023-03-01T10:38:10;4.60;99.90
59771;DHT22;45649;53.014;6.600;2023-03-01T10:40:56;4.60;99.90
59771;DHT22;45649;53.014;6.600;2023-03-01T10:43:24;4.70;99.90
59771;DHT22;45649;53.014;6.600;2023-03-01T10:45:51;4.70;99.90
59771;DHT22;45649;53.014;6.600;2023-03-01T10:48:18;4.80;99.90
59771;DHT22;45649;53.014;6.600;2023-03-01T10:51:05;4.80;99.90
59771;DHT22;45649;53.014;6.600;2023-03-01T10:53:38;4.80;99.90
59771;DHT22;45649;53.014;6.600;2023-03-01T10:58:33;4.90;99.90
59771;DHT22;45649;53.014;6.600;2023-03-01T11:01:01;5.00;99.90
59771;DHT22;45649;53.014;6.600;2023-03-01T11:03:33;5.10;99.90
59771;DHT22;45649;53.014;6.600;2023-03-01T11:08:34;5.10;99.90
59771;DHT22;45649;53.014;6.600;2023-03-01T11:11:23;5.10;99.90
59771;DHT22;45649;53.014;6.600;2023-03-01T11:16:27;5.10;99.90
59771;DHT22;45649;53.014;6.600;2023-03-01T11:19:12;5.20;99.90
59771;DHT22;45649;53.014;6.600;2023-03-01T11:21:47;5.20;99.90
59771;DHT22;45649;53.014;6.600;2023-03-01T11:24:16;5.30;99.90
59771;DHT22;45649;53.014;6.600;2023-03-01T11:26:45;5.30;99.90
59771;DHT22;45649;53.014;6.600;2023-03-01T11:29:39;5.30;99.90
59771;DHT22;45649;53.014;6.600;2023-03-01T11:32:09;5.30;99.90
59771;DHT22;45649;53.014;6.600;2023-03-01T11:34:45;5.30;99.90
59771;DHT22;45649;53.014;6.600;2023-03-01T11:37:40;5.40;99.90
59771;DHT22;45649;53.014;6.600;2023-03-01T11:40:25;5.40;99.90
59771;DHT22;45649;53.014;6.600;2023-03-01T11:51:27;5.70;99.90
59771;DHT22;45649;53.014;6.600;2023-03-01T11:54:22;5.70;99.90
59771;DHT22;45649;53.014;6.600;2023-03-01T11:56:50;5.70;99.90
59771;DHT22;45649;53.014;6.600;2023-03-01T12:08:03;5.80;99.90
59771;DHT22;45649;53.014;6.600;2023-03-01T12:10:45;5.80;99.90
59771;DHT22;45649;53.014;6.600;2023-03-01T12:16:03;5.90;99.90
59771;DHT22;45649;53.014;6.600;2023-03-01T12:24:23;6.00;99.20
59771;DHT22;45649;53.014;6.600;2023-03-01T12:26:58;6.00;97.50
59771;DHT22;45649;53.014;6.600;2023-03-01T12:29:48;6.00;92.00
59771;DHT22;45649;53.014;6.600;2023-03-01T12:46:28;6.30;88.90
59771;DHT22;45649;53.014;6.600;2023-03-01T12:51:56;6.30;91.40
59771;DHT22;45649;53.014;6.600;2023-03-01T12:54:29;6.40;91.00
59771;DHT22;45649;53.014;6.600;2023-03-01T12:56:58;6.40;91.10
59771;DHT22;45649;53.014;6.600;2023-03-01T12:59:37;6.40;90.30
59771;DHT22;45649;53.014;6.600;2023-03-01T13:02:49;6.40;90.00
59771;DHT22;45649;53.014;6.600;2023-03-01T13:05:33;6.40;90.30
59771;DHT22;45649;53.014;6.600;2023-03-01T13:11:00;6.50;90.50
59771;DHT22;45649;53.014;6.600;2023-03-01T13:13:28;6.50;90.00
59771;DHT22;45649;53.014;6.600;2023-03-01T13:15:55;6.50;90.10
59771;DHT22;45649;53.014;6.600;2023-03-01T13:20:55;6.60;91.00
59771;DHT22;45649;53.014;6.600;2023-03-01T13:33:48;6.80;90.70
59771;DHT22;45649;53.014;6.600;2023-03-01T13:39:03;6.80;90.40
59771;DHT22;45649;53.014;6.600;2023-03-01T13:49:57;6.90;88.10
59771;DHT22;45649;53.014;6.600;2023-03-01T13:52:42;7.00;89.80
59771;DHT22;45649;53.014;6.600;2023-03-01T13:57:43;7.00;90.00
59771;DHT22;45649;53.014;6.600;2023-03-01T14:03:16;7.00;90.20
59771;DHT22;45649;53.014;6.600;2023-03-01T14:08:30;7.10;91.90
59771;DHT22;45649;53.014;6.600;2023-03-01T14:20:07;7.10;90.60
59771;DHT22;45649;53.014;6.600;2023-03-01T14:22:35;7.20;90.30
59771;DHT22;45649;53.014;6.600;2023-03-01T14:25:36;7.10;90.90
59771;DHT22;45649;53.014;6.600;2023-03-01T14:28:18;7.20;91.30
59771;DHT22;45649;53.014;6.600;2023-03-01T14:30:55;7.20;90.20
59771;DHT22;45649;53.014;6.600;2023-03-01T14:33:33;7.20;90.60
59771;DHT22;45649;53.014;6.600;2023-03-01T14:36:00;7.20;88.80
59771;DHT22;45649;53.014;6.600;2023-03-01T14:38:47;7.20;88.60
59771;DHT22;45649;53.014;6.600;2023-03-01T14:41:20;7.20;87.60
59771;DHT22;45649;53.014;6.600;2023-03-01T14:43:57;7.10;85.70
59771;DHT22;45649;53.014;6.600;2023-03-01T14:46:43;7.20;88.40
59771;DHT22;45649;53.014;6.600;2023-03-01T14:49:21;7.20;84.80
59771;DHT22;45649;53.014;6.600;2023-03-01T14:52:02;7.20;88.20
59771;DHT22;45649;53.014;6.600;2023-03-01T14:57:01;7.30;84.50
59771;DHT22;45649;53.014;6.600;2023-03-01T14:59:28;7.30;84.40
59771;DHT22;45649;53.014;6.600;2023-03-01T15:01:56;7.20;85.10
59771;DHT22;45649;53.014;6.600;2023-03-01T15:04:24;7.20;86.70
59771;DHT22;45649;53.014;6.600;2023-03-01T15:06:54;7.30;87.70
59771;DHT22;45649;53.014;6.600;2023-03-01T15:09:21;7.30;87.10
59771;DHT22;45649;53.014;6.600;2023-03-01T15:11:48;7.20;87.70
59771;DHT22;45649;53.014;6.600;2023-03-01T15:14:40;7.20;87.30
59771;DHT22;45649;53.014;6.600;2023-03-01T15:17:30;7.20;87.70
59771;DHT22;45649;53.014;6.600;2023-03-01T15:19:58;7.20;88.70
59771;DHT22;45649;53.014;6.600;2023-03-01T15:22:25;7.20;88.80
59771;DHT22;45649;53.014;6.600;2023-03-01T15:24:52;7.20;90.40
59771;DHT22;45649;53.014;6.600;2023-03-01T15:27:21;7.20;90.20
59771;DHT22;45649;53.014;6.600;2023-03-01T15:29:53;7.20;90.10
59771;DHT22;45649;53.014;6.600;2023-03-01T15:32:33;7.20;90.20
59771;DHT22;45649;53.014;6.600;2023-03-01T15:35:00;7.20;91.30
59771;DHT22;45649;53.014;6.600;2023-03-01T15:40:24;7.20;91.00
59771;DHT22;45649;53.014;6.600;2023-03-01T15:43:01;7.20;90.90
59771;DHT22;45649;53.014;6.600;2023-03-01T15:45:29;7.10;91.00
59771;DHT22;45649;53.014;6.600;2023-03-01T15:48:04;7.10;91.90
59771;DHT22;45649;53.014;6.600;2023-03-01T15:50:33;7.10;91.40
59771;DHT22;45649;53.014;6.600;2023-03-01T15:53:00;7.10;92.40
59771;DHT22;45649;53.014;6.600;2023-03-01T15:55:31;7.10;91.70
59771;DHT22;45649;53.014;6.600;2023-03-01T15:58:22;7.10;91.00
59771;DHT22;45649;53.014;6.600;2023-03-01T16:00:49;7.10;91.30
59771;DHT22;45649;53.014;6.600;2023-03-01T16:03:22;7.10;92.40
59771;DHT22;45649;53.014;6.600;2023-03-01T16:05:48;7.00;91.70
59771;DHT22;45649;53.014;6.600;2023-03-01T16:08:15;7.10;92.10
59771;DHT22;45649;53.014;6.600;2023-03-01T16:10:41;7.10;92.80
59771;DHT22;45649;53.014;6.600;2023-03-01T16:13:13;7.00;91.90
59771;DHT22;45649;53.014;6.600;2023-03-01T16:15:40;7.00;92.60
59771;DHT22;45649;53.014;6.600;2023-03-01T16:18:06;6.90;91.90
59771;DHT22;45649;53.014;6.600;2023-03-01T16:20:33;6.90;91.70
59771;DHT22;45649;53.014;6.600;2023-03-01T16:23:01;6.90;92.00
59771;DHT22;45649;53.014;6.600;2023-03-01T16:25:28;6.90;92.40
59771;DHT22;45649;53.014;6.600;2023-03-01T16:27:54;6.80;92.30
59771;DHT22;45649;53.014;6.600;2023-03-01T16:30:22;6.80;93.00
59771;DHT22;45649;53.014;6.600;2023-03-01T16:32:49;6.80;93.10
59771;DHT22;45649;53.014;6.600;2023-03-01T16:35:17;6.80;93.00
59771;DHT22;45649;53.014;6.600;2023-03-01T16:37:43;6.70;93.50
59771;DHT22;45649;53.014;6.600;2023-03-01T16:40:28;6.60;93.40
59771;DHT22;45649;53.014;6.600;2023-03-01T16:42:55;6.70;93.00
59771;DHT22;45649;53.014;6.600;2023-03-01T16:45:25;6.60;93.10
59771;DHT22;45649;53.014;6.600;2023-03-01T16:47:52;6.60;93.60
59771;DHT22;45649;53.014;6.600;2023-03-01T16:50:18;6.50;93.40
59771;DHT22;45649;53.014;6.600;2023-03-01T16:52:44;6.50;93.70
59771;DHT22;45649;53.014;6.600;2023-03-01T16:55:10;6.40;93.80
59771;DHT22;45649;53.014;6.600;2023-03-01T16:57:37;6.40;94.00
59771;DHT22;45649;53.014;6.600;2023-03-01T17:00:09;6.40;94.60
59771;DHT22;45649;53.014;6.600;2023-03-01T17:02:36;6.30;94.20
59771;DHT22;45649;53.014;6.600;2023-03-01T17:05:03;6.40;95.50
59771;DHT22;45649;53.014;6.600;2023-03-01T17:07:30;6.30;94.90
59771;DHT22;45649;53.014;6.600;2023-03-01T17:09:59;6.20;95.10
59771;DHT22;45649;53.014;6.600;2023-03-01T17:12:25;6.20;95.60
59771;DHT22;45649;53.014;6.600;2023-03-01T17:14:51;6.20;97.70
59771;DHT22;45649;53.014;6.600;2023-03-01T17:17:17;6.30;98.60
59771;DHT22;45649;53.014;6.600;2023-03-01T17:19:42;6.30;97.60
59771;DHT22;45649;53.014;6.600;2023-03-01T17:22:09;6.20;97.60
59771;DHT22;45649;53.014;6.600;2023-03-01T17:24:37;6.10;97.20
59771;DHT22;45649;53.014;6.600;2023-03-01T17:27:04;6.10;97.10
59771;DHT22;45649;53.014;6.600;2023-03-01T17:29:30;6.00;97.80
59771;DHT22;45649;53.014;6.600;2023-03-01T17:31:56;6.00;97.50
59771;DHT22;45649;53.014;6.600;2023-03-01T17:34:26;5.90;97.70
59771;DHT22;45649;53.014;6.600;2023-03-01T17:36:52;6.00;98.80
59771;DHT22;45649;53.014;6.600;2023-03-01T17:39:19;5.90;98.20
59771;DHT22;45649;53.014;6.600;2023-03-01T17:41:50;5.90;98.50
59771;DHT22;45649;53.014;6.600;2023-03-01T17:44:16;5.80;98.70
59771;DHT22;45649;53.014;6.600;2023-03-01T17:46:42;5.80;98.90
59771;DHT22;45649;53.014;6.600;2023-03-01T17:49:08;5.70;98.90
59771;DHT22;45649;53.014;6.600;2023-03-01T17:51:34;5.70;98.80
59771;DHT22;45649;53.014;6.600;2023-03-01T17:53:59;5.70;99.40
59771;DHT22;45649;53.014;6.600;2023-03-01T17:56:25;5.60;99.10
59771;DHT22;45649;53.014;6.600;2023-03-01T17:58:51;5.50;99.30
59771;DHT22;45649;53.014;6.600;2023-03-01T18:01:19;5.50;99.90
59771;DHT22;45649;53.014;6.600;2023-03-01T18:03:45;5.50;99.90
